sensor_id;sensor_type;location;lat;lon;timestamp;temperature;humidity
19906;DHT22;10115;50.906;4.438;2023-08-07T00:00:33;12.10;99.90
19906;DHT22;10115;50.906;4.438;2023-08-07T00:02:59;12.20;99.90
19906;DHT22;10115;50.906;4.438;2023-08-07T00:05:25;12.20;99.90
19906;DHT22;10115;50.906;4.438;2023-08-07T00:07:50;12.30;99.90
19906;DHT22;10115;50.906;4.438;2023-08-07T00:10:16;12.30;99.90
19906;DHT22;10115;50.906;4.438;2023-08-07T00:12:42;12.40;99.90
19906;DHT22;10115;50.906;4.438;2023-08-07T00:15:09;12.40;99.90
19906;DHT22;10115;50.906;4.438;2023-08-07T00:17:34;12.40;99.90
19906;DHT22;10115;50.906;4.438;2023-08-07T00:20:00;12.40;99.90
19906;DHT22;10115;50.906;4.438;2023-08-07T00:22:25;12.50;99.90
19906;DHT22;10115;50.906;4.438;2023-08-07T00:24:51;12.50;99.90
19906;DHT22;10115;50.906;4.438;2023-08-07T00:27:17;12.50;99.90
19906;DHT22;10115;50.906;4.438;2023-08-07T00:29:42;12.50;99.90
19906;DHT22;10115;50.906;4.438;2023-08-07T00:32:08;12.50;99.90
19906;DHT22;10115;50.906;4.438;2023-08-07T00:34:34;12.50;99.90
19906;DHT22;10115;50.906;4.438;2023-08-07T00:37:00;12.70;99.90
19906;DHT22;10115;50.906;4.438;2023-08-07T00:39:25;12.60;99.90
19906;DHT22;10115;50.906;4.438;2023-08-07T00:41:51;12.60;99.90
19906;DHT22;10115;50.906;4.438;2023-08-07T00:44:18;12.60;99.90
19906;DHT22;10115;50.906;4.438;2023-08-07T00:46:44;12.50;99.90
19906;DHT22;10115;50.906;4.438;2023-08-07T00:49:11;12.50;99.90
19906;DHT22;10115;50.906;4.438;2023-08-07T00:51:38;12.40;99.90
19906;DHT22;10115;50.906;4.438;2023-08-07T00:54:05;12.40;99.90
19906;DHT22;10115;50.906;4.438;2023-08-07T00:56:33;12.40;99.90
19906;DHT22;10115;50.906;4.438;2023-08-07T00:58:59;12.30;99.90
19906;DHT22;10115;50.906;4.438;2023-08-07T01:01:26;12.30;99.90
19906;DHT22;10115;50.906;4.438;2023-08-07T01:03:52;12.30;99.90
19906;DHT22;10115;50.906;4.438;2023-08-07T01:06:18;12.30;99.90
19906;DHT22;10115;50.906;4.438;2023-08-07T01:08:44;12.30;99.90
19906;DHT22;10115;50.906;4.438;2023-08-07T01:16:59;12.10;99.90
19906;DHT22;10115;50.906;4.438;2023-08-07T01:19:28;12.10;99.90
19906;DHT22;10115;50.906;4.438;2023-08-07T01:22:17;12.00;99.90
19906;DHT22;10115;50.906;4.438;2023-08-07T01:24:48;12.00;99.90
19906;DHT22;10115;50.906;4.438;2023-08-07T01:27:35;12.00;99.90
19906;DHT22;10115;50.906;4.438;2023-08-07T01:30:11;11.90;99.90
19906;DHT22;10115;50.906;4.438;2023-08-07T01:35:05;11.90;99.90
19906;DHT22;10115;50.906;4.438;2023-08-07T01:37:35;11.90;99.90
19906;DHT22;10115;50.906;4.438;2023-08-07T01:40:02;11.80;99.90
19906;DHT22;10115;50.906;4.438;2023-08-07T01:42:29;11.80;99.90
19906;DHT22;10115;50.906;4.438;2023-08-07T01:44:55;11.90;99.90
19906;DHT22;10115;50.906;4.438;2023-08-07T01:47:21;11.90;99.90
19906;DHT22;10115;50.906;4.438;2023-08-07T01:49:46;11.90;99.90
19906;DHT22;10115;50.906;4.438;2023-08-07T01:52:12;11.80;99.90
19906;DHT22;10115;50.906;4.438;2023-08-07T01:54:38;11.80;99.90
19906;DHT22;10115;50.906;4.438;2023-08-07T01:57:04;11.80;99.90
19906;DHT22;10115;50.906;4.438;2023-08-07T01:59:30;11.80;99.90
19906;DHT22;10115;50.906;4.438;2023-08-07T02:01:56;11.80;99.90
19906;DHT22;10115;50.906;4.438;2023-08-07T02:04:21;11.80;99.90
19906;DHT22;10115;50.906;4.438;2023-08-07T02:06:47;11.80;99.90
19906;DHT22;10115;50.906;4.438;2023-08-07T02:09:12;11.80;99.90
19906;DHT22;10115;50.906;4.438;2023-08-07T02:11:38;11.80;99.90
19906;DHT22;10115;50.906;4.438;2023-08-07T02:14:04;11.80;99.90
19906;DHT22;10115;50.906;4.438;2023-08-07T02:16:29;11.80;99.90
19906;DHT22;10115;50.906;4.438;2023-08-07T02:18:55;11.70;99.90
19906;DHT22;10115;50.906;4.438;2023-08-07T02:21:20;11.70;99.90
19906;DHT22;10115;50.906;4.438;2023-08-07T02:23:46;11.70;99.90
19906;DHT22;10115;50.906;4.438;2023-08-07T02:26:12;11.60;99.90
19906;DHT22;10115;50.906;4.438;2023-08-07T02:28:37;11.60;99.90
19906;DHT22;10115;50.906;4.438;2023-08-07T02:31:03;11.60;99.90
19906;DHT22;10115;50.906;4.438;2023-08-07T02:33:29;11.50;99.90
19906;DHT22;10115;50.906;4.438;2023-08-07T02:35:57;11.50;99.90
19906;DHT22;10115;50.906;4.438;2023-08-07T02:38:25;11.50;99.90
19906;DHT22;10115;50.906;4.438;2023-08-07T02:40:51;11.50;99.90
19906;DHT22;10115;50.906;4.438;2023-08-07T02:43:16;11.50;99.90
19906;DHT22;10115;50.906;4.438;2023-08-07T02:45:42;11.50;99.90
19906;DHT22;10115;50.906;4.438;2023-08-07T02:48:08;11.50;99.90
19906;DHT22;10115;50.906;4.438;2023-08-07T02:50:33;11.50;99.90
19906;DHT22;10115;50.906;4.438;2023-08-07T02:53:00;11.50;99.90
19906;DHT22;10115;50.906;4.438;2023-08-07T02:55:26;11.50;99.90
19906;DHT22;10115;50.906;4.438;2023-08-07T02:57:51;11.40;99.90
19906;DHT22;10115;50.906;4.438;2023-08-07T03:00:17;11.50;99.90
19906;DHT22;10115;50.906;4.438;2023-08-07T03:02:43;11.40;99.90
19906;DHT22;10115;50.906;4.438;2023-08-07T03:05:09;11.40;99.90
19906;DHT22;10115;50.906;4.438;2023-08-07T03:07:34;11.40;99.90
19906;DHT22;10115;50.906;4.438;2023-08-07T03:10:00;11.40;99.90
19906;DHT22;10115;50.906;4.438;2023-08-07T03:12:26;11.30;99.90
19906;DHT22;10115;50.906;4.438;2023-08-07T03:14:52;11.40;99.90
19906;DHT22;10115;50.906;4.438;2023-08-07T03:17:17;11.40;99.90
19906;DHT22;10115;50.906;4.438;2023-08-07T03:19:43;11.40;99.90
19906;DHT22;10115;50.906;4.438;2023-08-07T03:22:09;11.40;99.90
19906;DHT22;10115;50.906;4.438;2023-08-07T03:24:35;11.40;99.90
19906;DHT22;10115;50.906;4.438;2023-08-07T03:27:00;11.40;99.90
19906;DHT22;10115;50.906;4.438;2023-08-07T03:29:26;11.40;99.90
19906;DHT22;10115;50.906;4.438;2023-08-07T03:31:52;11.50;99.90
19906;DHT22;10115;50.906;4.438;2023-08-07T03:34:18;11.40;99.90
19906;DHT22;10115;50.906;4.438;2023-08-07T03:36:44;11.40;99.90
19906;DHT22;10115;50.906;4.438;2023-08-07T03:39:10;11.40;99.90
19906;DHT22;10115;50.906;4.438;2023-08-07T03:41:37;11.40;99.90
19906;DHT22;10115;50.906;4.438;2023-08-07T03:44:03;11.50;99.90
19906;DHT22;10115;50.906;4.438;2023-08-07T03:46:29;11.50;99.90
19906;DHT22;10115;50.906;4.438;2023-08-07T03:48:55;11.50;99.90
19906;DHT22;10115;50.906;4.438;2023-08-07T03:51:20;11.60;99.90
19906;DHT22;10115;50.906;4.438;2023-08-07T03:53:46;11.60;99.90
19906;DHT22;10115;50.906;4.438;2023-08-07T03:56:12;11.70;99.90
19906;DHT22;10115;50.906;4.438;2023-08-07T03:58:37;11.70;99.90
19906;DHT22;10115;50.906;4.438;2023-08-07T04:01:03;11.80;99.90
19906;DHT22;10115;50.906;4.438;2023-08-07T04:03:29;11.70;99.90
19906;DHT22;10115;50.906;4.438;2023-08-07T04:05:55;11.70;99.90
19906;DHT22;10115;50.906;4.438;2023-08-07T04:08:21;11.70;99.90
19906;DHT22;10115;50.906;4.438;2023-08-07T04:11:00;11.70;99.90
19906;DHT22;10115;50.906;4.438;2023-08-07T04:13:27;11.70;99.90
19906;DHT22;10115;50.906;4.438;2023-08-07T04:15:53;11.70;99.90
19906;DHT22;10115;50.906;4.438;2023-08-07T04:18:18;11.60;99.90
19906;DHT22;10115;50.906;4.438;2023-08-07T04:20:54;11.60;99.90
19906;DHT22;10115;50.906;4.438;2023-08-07T04:23:21;11.60;99.90
19906;DHT22;10115;50.906;4.438;2023-08-07T04:25:47;11.60;99.90
19906;DHT22;10115;50.906;4.438;2023-08-07T04:28:13;11.60;99.90
19906;DHT22;10115;50.906;4.438;2023-08-07T04:30:40;11.60;99.90
19906;DHT22;10115;50.906;4.438;2023-08-07T04:33:05;11.60;99.90
19906;DHT22;10115;50.906;4.438;2023-08-07T04:35:31;11.60;99.90
19906;DHT22;10115;50.906;4.438;2023-08-07T04:37:57;11.60;99.90
19906;DHT22;10115;50.906;4.438;2023-08-07T04:40:23;11.60;99.90
19906;DHT22;10115;50.906;4.438;2023-08-07T04:42:51;11.70;99.90
19906;DHT22;10115;50.906;4.438;2023-08-07T04:45:17;11.70;99.90
19906;DHT22;10115;50.906;4.438;2023-08-07T04:47:43;11.70;99.90
19906;DHT22;10115;50.906;4.438;2023-08-07T04:50:09;11.80;99.90
19906;DHT22;10115;50.906;4.438;2023-08-07T04:52:35;11.80;99.90
19906;DHT22;10115;50.906;4.438;2023-08-07T04:55:01;11.80;99.90
19906;DHT22;10115;50.906;4.438;2023-08-07T04:57:26;11.70;99.90
19906;DHT22;10115;50.906;4.438;2023-08-07T04:59:53;11.70;99.90
19906;DHT22;10115;50.906;4.438;2023-08-07T05:02:19;11.60;99.90
19906;DHT22;10115;50.906;4.438;2023-08-07T05:04:44;11.60;99.90
19906;DHT22;10115;50.906;4.438;2023-08-07T05:07:11;11.70;99.90
19906;DHT22;10115;50.906;4.438;2023-08-07T05:09:38;11.70;99.90
19906;DHT22;10115;50.906;4.438;2023-08-07T05:12:04;11.90;99.90
19906;DHT22;10115;50.906;4.438;2023-08-07T05:14:30;11.90;99.90
19906;DHT22;10115;50.906;4.438;2023-08-07T05:16:56;12.00;99.90
19906;DHT22;10115;50.906;4.438;2023-08-07T05:19:22;12.00;99.90
19906;DHT22;10115;50.906;4.438;2023-08-07T05:21:48;12.10;99.90
19906;DHT22;10115;50.906;4.438;2023-08-07T05:24:16;12.20;99.90
19906;DHT22;10115;50.906;4.438;2023-08-07T05:26:42;12.30;99.90
19906;DHT22;10115;50.906;4.438;2023-08-07T05:29:08;12.40;99.90
19906;DHT22;10115;50.906;4.438;2023-08-07T05:31:34;12.50;99.90
19906;DHT22;10115;50.906;4.438;2023-08-07T05:34:00;12.60;99.90
19906;DHT22;10115;50.906;4.438;2023-08-07T05:36:25;12.60;99.90
19906;DHT22;10115;50.906;4.438;2023-08-07T05:38:51;12.70;99.90
19906;DHT22;10115;50.906;4.438;2023-08-07T05:41:17;12.80;99.90
19906;DHT22;10115;50.906;4.438;2023-08-07T05:43:43;12.80;99.90
19906;DHT22;10115;50.906;4.438;2023-08-07T05:46:09;12.90;99.90
19906;DHT22;10115;50.906;4.438;2023-08-07T05:48:35;13.00;99.90
19906;DHT22;10115;50.906;4.438;2023-08-07T05:51:01;13.10;99.90
19906;DHT22;10115;50.906;4.438;2023-08-07T05:53:26;13.20;99.90
19906;DHT22;10115;50.906;4.438;2023-08-07T05:55:52;13.30;99.90
19906;DHT22;10115;50.906;4.438;2023-08-07T05:58:18;13.40;99.90
19906;DHT22;10115;50.906;4.438;2023-08-07T06:00:44;13.50;99.90
19906;DHT22;10115;50.906;4.438;2023-08-07T06:03:10;13.60;99.90
19906;DHT22;10115;50.906;4.438;2023-08-07T06:05:35;13.70;99.90
19906;DHT22;10115;50.906;4.438;2023-08-07T06:08:01;13.70;99.90
19906;DHT22;10115;50.906;4.438;2023-08-07T06:10:27;13.80;99.90
19906;DHT22;10115;50.906;4.438;2023-08-07T06:12:53;13.80;99.90
19906;DHT22;10115;50.906;4.438;2023-08-07T06:15:18;13.90;99.90
19906;DHT22;10115;50.906;4.438;2023-08-07T06:17:45;13.90;99.90
19906;DHT22;10115;50.906;4.438;2023-08-07T06:20:10;14.00;99.90
19906;DHT22;10115;50.906;4.438;2023-08-07T06:22:37;14.00;99.90
19906;DHT22;10115;50.906;4.438;2023-08-07T06:25:03;14.10;99.90
19906;DHT22;10115;50.906;4.438;2023-08-07T06:27:31;14.20;99.90
19906;DHT22;10115;50.906;4.438;2023-08-07T06:29:57;14.20;99.90
19906;DHT22;10115;50.906;4.438;2023-08-07T06:32:24;14.20;99.90
19906;DHT22;10115;50.906;4.438;2023-08-07T06:34:49;14.40;99.90
19906;DHT22;10115;50.906;4.438;2023-08-07T06:37:15;14.40;99.90
19906;DHT22;10115;50.906;4.438;2023-08-07T06:39:41;14.40;99.90
19906;DHT22;10115;50.906;4.438;2023-08-07T06:42:07;14.50;99.90
19906;DHT22;10115;50.906;4.438;2023-08-07T06:44:32;14.60;99.90
19906;DHT22;10115;50.906;4.438;2023-08-07T06:46:58;14.60;99.90
19906;DHT22;10115;50.906;4.438;2023-08-07T06:49:23;14.70;99.90
19906;DHT22;10115;50.906;4.438;2023-08-07T06:51:49;14.70;99.90
19906;DHT22;10115;50.906;4.438;2023-08-07T06:54:15;14.80;99.90
19906;DHT22;10115;50.906;4.438;2023-08-07T06:56:40;14.80;99.90
19906;DHT22;10115;50.906;4.438;2023-08-07T06:59:08;14.90;99.90
19906;DHT22;10115;50.906;4.438;2023-08-07T07:01:33;14.90;99.90
19906;DHT22;10115;50.906;4.438;2023-08-07T07:03:59;15.00;99.90
19906;DHT22;10115;50.906;4.438;2023-08-07T07:06:25;15.00;99.90
19906;DHT22;10115;50.906;4.438;2023-08-07T07:08:53;15.10;99.90
19906;DHT22;10115;50.906;4.438;2023-08-07T07:11:22;15.10;99.90
19906;DHT22;10115;50.906;4.438;2023-08-07T07:13:50;15.30;99.90
19906;DHT22;10115;50.906;4.438;2023-08-07T07:16:20;15.30;99.90
19906;DHT22;10115;50.906;4.438;2023-08-07T07:18:52;15.30;99.90
19906;DHT22;10115;50.906;4.438;2023-08-07T07:21:18;15.30;99.90
19906;DHT22;10115;50.906;4.438;2023-08-07T07:23:43;15.30;99.90
19906;DHT22;10115;50.906;4.438;2023-08-07T07:26:09;15.40;99.90
19906;DHT22;10115;50.906;4.438;2023-08-07T07:28:35;15.50;99.90
19906;DHT22;10115;50.906;4.438;2023-08-07T07:31:00;15.50;99.90
19906;DHT22;10115;50.906;4.438;2023-08-07T07:33:26;15.70;99.90
19906;DHT22;10115;50.906;4.438;2023-08-07T07:35:53;15.90;99.90
19906;DHT22;10115;50.906;4.438;2023-08-07T07:38:18;15.90;99.90
19906;DHT22;10115;50.906;4.438;2023-08-07T07:40:44;15.80;99.90
19906;DHT22;10115;50.906;4.438;2023-08-07T07:43:10;16.00;99.90
19906;DHT22;10115;50.906;4.438;2023-08-07T07:45:36;16.10;99.90
19906;DHT22;10115;50.906;4.438;2023-08-07T07:48:03;16.20;99.90
19906;DHT22;10115;50.906;4.438;2023-08-07T07:50:29;16.20;99.90
19906;DHT22;10115;50.906;4.438;2023-08-07T07:52:55;16.20;99.90
19906;DHT22;10115;50.906;4.438;2023-08-07T07:55:20;16.40;99.90
19906;DHT22;10115;50.906;4.438;2023-08-07T07:57:46;16.30;99.90
19906;DHT22;10115;50.906;4.438;2023-08-07T08:00:13;16.40;99.90
19906;DHT22;10115;50.906;4.438;2023-08-07T08:02:39;16.50;99.90
19906;DHT22;10115;50.906;4.438;2023-08-07T08:05:07;16.60;99.90
19906;DHT22;10115;50.906;4.438;2023-08-07T08:07:33;16.50;99.90
19906;DHT22;10115;50.906;4.438;2023-08-07T08:10:00;16.60;99.90
19906;DHT22;10115;50.906;4.438;2023-08-07T08:12:26;17.00;99.90
19906;DHT22;10115;50.906;4.438;2023-08-07T08:14:51;16.90;99.90
19906;DHT22;10115;50.906;4.438;2023-08-07T08:17:17;16.70;99.90
19906;DHT22;10115;50.906;4.438;2023-08-07T08:19:43;16.70;99.90
19906;DHT22;10115;50.906;4.438;2023-08-07T08:22:08;16.70;99.90
19906;DHT22;10115;50.906;4.438;2023-08-07T08:24:34;16.80;99.90
19906;DHT22;10115;50.906;4.438;2023-08-07T08:27:00;16.80;99.90
19906;DHT22;10115;50.906;4.438;2023-08-07T08:29:26;17.00;99.90
19906;DHT22;10115;50.906;4.438;2023-08-07T08:31:54;17.10;99.90
19906;DHT22;10115;50.906;4.438;2023-08-07T08:34:20;17.00;99.90
19906;DHT22;10115;50.906;4.438;2023-08-07T08:36:47;17.00;99.90
19906;DHT22;10115;50.906;4.438;2023-08-07T08:39:13;17.20;99.90
19906;DHT22;10115;50.906;4.438;2023-08-07T08:41:40;17.30;99.90
19906;DHT22;10115;50.906;4.438;2023-08-07T08:44:07;17.30;99.90
19906;DHT22;10115;50.906;4.438;2023-08-07T08:46:36;17.40;99.90
19906;DHT22;10115;50.906;4.438;2023-08-07T08:49:04;17.70;99.90
19906;DHT22;10115;50.906;4.438;2023-08-07T08:51:30;17.40;99.90
19906;DHT22;10115;50.906;4.438;2023-08-07T08:53:57;17.40;99.90
19906;DHT22;10115;50.906;4.438;2023-08-07T08:56:23;17.60;99.90
19906;DHT22;10115;50.906;4.438;2023-08-07T08:58:52;17.60;99.90
19906;DHT22;10115;50.906;4.438;2023-08-07T09:01:18;17.50;99.90
19906;DHT22;10115;50.906;4.438;2023-08-07T09:03:47;17.40;99.90
19906;DHT22;10115;50.906;4.438;2023-08-07T09:06:13;17.20;99.90
19906;DHT22;10115;50.906;4.438;2023-08-07T09:08:42;17.00;99.90
19906;DHT22;10115;50.906;4.438;2023-08-07T09:11:10;17.00;99.90
19906;DHT22;10115;50.906;4.438;2023-08-07T09:13:37;16.90;99.90
19906;DHT22;10115;50.906;4.438;2023-08-07T09:16:04;16.80;99.90
19906;DHT22;10115;50.906;4.438;2023-08-07T09:18:33;17.00;99.90
19906;DHT22;10115;50.906;4.438;2023-08-07T09:20:59;17.20;99.90
19906;DHT22;10115;50.906;4.438;2023-08-07T09:23:25;17.30;99.90
19906;DHT22;10115;50.906;4.438;2023-08-07T09:26:01;17.40;99.90
19906;DHT22;10115;50.906;4.438;2023-08-07T09:28:28;17.10;99.90
19906;DHT22;10115;50.906;4.438;2023-08-07T09:30:55;17.10;99.90
19906;DHT22;10115;50.906;4.438;2023-08-07T09:33:28;17.30;99.90
19906;DHT22;10115;50.906;4.438;2023-08-07T09:35:58;17.50;99.90
19906;DHT22;10115;50.906;4.438;2023-08-07T09:38:28;17.90;99.90
19906;DHT22;10115;50.906;4.438;2023-08-07T09:40:57;18.40;99.90
19906;DHT22;10115;50.906;4.438;2023-08-07T09:43:24;18.80;99.90
19906;DHT22;10115;50.906;4.438;2023-08-07T09:45:49;18.80;99.90
19906;DHT22;10115;50.906;4.438;2023-08-07T09:48:24;18.30;99.90
19906;DHT22;10115;50.906;4.438;2023-08-07T09:50:51;18.10;99.90
19906;DHT22;10115;50.906;4.438;2023-08-07T09:53:16;17.90;99.90
19906;DHT22;10115;50.906;4.438;2023-08-07T09:55:42;17.90;99.90
19906;DHT22;10115;50.906;4.438;2023-08-07T09:58:09;18.00;99.90
19906;DHT22;10115;50.906;4.438;2023-08-07T10:00:36;18.30;99.90
19906;DHT22;10115;50.906;4.438;2023-08-07T10:03:03;18.40;99.90
19906;DHT22;10115;50.906;4.438;2023-08-07T10:05:30;18.40;99.90
19906;DHT22;10115;50.906;4.438;2023-08-07T10:07:56;18.20;99.90
19906;DHT22;10115;50.906;4.438;2023-08-07T10:10:22;18.00;99.90
19906;DHT22;10115;50.906;4.438;2023-08-07T10:12:49;17.60;99.90
19906;DHT22;10115;50.906;4.438;2023-08-07T10:15:15;17.50;99.90
19906;DHT22;10115;50.906;4.438;2023-08-07T10:17:41;17.70;99.90
19906;DHT22;10115;50.906;4.438;2023-08-07T10:20:07;18.00;99.90
19906;DHT22;10115;50.906;4.438;2023-08-07T10:22:34;18.40;99.90
19906;DHT22;10115;50.906;4.438;2023-08-07T10:25:03;18.70;99.90
19906;DHT22;10115;50.906;4.438;2023-08-07T10:27:34;18.80;99.90
19906;DHT22;10115;50.906;4.438;2023-08-07T10:30:02;18.60;99.90
19906;DHT22;10115;50.906;4.438;2023-08-07T10:32:30;18.40;99.90
19906;DHT22;10115;50.906;4.438;2023-08-07T10:34:56;18.60;99.90
19906;DHT22;10115;50.906;4.438;2023-08-07T10:37:40;18.30;99.90
19906;DHT22;10115;50.906;4.438;2023-08-07T10:40:08;18.40;99.90
19906;DHT22;10115;50.906;4.438;2023-08-07T10:42:59;18.70;99.90
19906;DHT22;10115;50.906;4.438;2023-08-07T10:45:28;18.80;99.90
19906;DHT22;10115;50.906;4.438;2023-08-07T10:48:12;18.90;99.90
19906;DHT22;10115;50.906;4.438;2023-08-07T10:50:57;18.60;99.90
19906;DHT22;10115;50.906;4.438;2023-08-07T10:53:30;18.60;99.90
19906;DHT22;10115;50.906;4.438;2023-08-07T10:55:57;18.60;99.90
19906;DHT22;10115;50.906;4.438;2023-08-07T10:58:37;18.80;99.90
19906;DHT22;10115;50.906;4.438;2023-08-07T11:03:54;19.40;99.90
19906;DHT22;10115;50.906;4.438;2023-08-07T11:06:25;19.10;99.90
19906;DHT22;10115;50.906;4.438;2023-08-07T11:08:52;19.00;99.90
19906;DHT22;10115;50.906;4.438;2023-08-07T11:11:18;19.00;99.90
19906;DHT22;10115;50.906;4.438;2023-08-07T11:13:44;18.80;99.90
19906;DHT22;10115;50.906;4.438;2023-08-07T11:16:10;18.80;99.90
19906;DHT22;10115;50.906;4.438;2023-08-07T11:18:37;18.80;99.90
19906;DHT22;10115;50.906;4.438;2023-08-07T11:21:07;18.90;99.90
19906;DHT22;10115;50.906;4.438;2023-08-07T11:23:33;19.00;99.90
19906;DHT22;10115;50.906;4.438;2023-08-07T11:25:58;19.50;99.90
19906;DHT22;10115;50.906;4.438;2023-08-07T11:28:24;19.30;99.90
19906;DHT22;10115;50.906;4.438;2023-08-07T11:30:53;19.30;99.90
19906;DHT22;10115;50.906;4.438;2023-08-07T11:33:22;19.40;99.90
19906;DHT22;10115;50.906;4.438;2023-08-07T11:35:49;19.30;99.90
19906;DHT22;10115;50.906;4.438;2023-08-07T11:38:32;19.40;99.90
19906;DHT22;10115;50.906;4.438;2023-08-07T11:41:03;20.00;99.90
19906;DHT22;10115;50.906;4.438;2023-08-07T11:43:33;20.20;99.90
19906;DHT22;10115;50.906;4.438;2023-08-07T11:46:01;19.50;99.90
19906;DHT22;10115;50.906;4.438;2023-08-07T11:48:28;19.30;99.90
19906;DHT22;10115;50.906;4.438;2023-08-07T11:50:54;19.10;99.90
19906;DHT22;10115;50.906;4.438;2023-08-07T11:53:21;18.90;99.90
19906;DHT22;10115;50.906;4.438;2023-08-07T11:58:25;19.00;99.90
19906;DHT22;10115;50.906;4.438;2023-08-07T12:00:51;19.00;99.90
19906;DHT22;10115;50.906;4.438;2023-08-07T12:03:27;19.30;99.90
19906;DHT22;10115;50.906;4.438;2023-08-07T12:05:54;19.60;99.90
19906;DHT22;10115;50.906;4.438;2023-08-07T12:08:21;19.20;99.90
19906;DHT22;10115;50.906;4.438;2023-08-07T12:10:53;19.20;99.90
19906;DHT22;10115;50.906;4.438;2023-08-07T12:13:26;19.40;99.90
19906;DHT22;10115;50.906;4.438;2023-08-07T12:15:56;19.30;99.90
19906;DHT22;10115;50.906;4.438;2023-08-07T12:18:23;19.80;99.90
19906;DHT22;10115;50.906;4.438;2023-08-07T12:20:50;19.70;99.90
19906;DHT22;10115;50.906;4.438;2023-08-07T12:23:17;20.00;99.90
19906;DHT22;10115;50.906;4.438;2023-08-07T12:25:44;20.40;99.90
19906;DHT22;10115;50.906;4.438;2023-08-07T12:28:10;20.70;99.90
19906;DHT22;10115;50.906;4.438;2023-08-07T12:30:37;21.00;99.90
19906;DHT22;10115;50.906;4.438;2023-08-07T12:33:03;20.90;99.90
19906;DHT22;10115;50.906;4.438;2023-08-07T12:35:30;20.30;99.90
19906;DHT22;10115;50.906;4.438;2023-08-07T12:37:56;20.20;99.90
19906;DHT22;10115;50.906;4.438;2023-08-07T12:40:22;19.20;99.90
19906;DHT22;10115;50.906;4.438;2023-08-07T12:42:49;19.10;99.90
19906;DHT22;10115;50.906;4.438;2023-08-07T12:45:15;19.00;99.90
19906;DHT22;10115;50.906;4.438;2023-08-07T12:47:42;18.90;99.90
19906;DHT22;10115;50.906;4.438;2023-08-07T12:50:08;19.10;99.90
19906;DHT22;10115;50.906;4.438;2023-08-07T12:52:35;19.50;99.90
19906;DHT22;10115;50.906;4.438;2023-08-07T12:55:00;19.80;99.90
19906;DHT22;10115;50.906;4.438;2023-08-07T12:57:26;19.90;99.90
19906;DHT22;10115;50.906;4.438;2023-08-07T12:59:52;20.10;99.90
19906;DHT22;10115;50.906;4.438;2023-08-07T13:02:18;20.40;99.90
19906;DHT22;10115;50.906;4.438;2023-08-07T13:04:43;20.30;99.90
19906;DHT22;10115;50.906;4.438;2023-08-07T13:07:09;20.20;99.90
19906;DHT22;10115;50.906;4.438;2023-08-07T13:09:35;20.10;99.90
19906;DHT22;10115;50.906;4.438;2023-08-07T13:12:00;19.80;99.90
19906;DHT22;10115;50.906;4.438;2023-08-07T13:14:26;19.40;99.90
19906;DHT22;10115;50.906;4.438;2023-08-07T13:16:52;19.30;99.90
19906;DHT22;10115;50.906;4.438;2023-08-07T13:19:18;19.20;99.90
19906;DHT22;10115;50.906;4.438;2023-08-07T13:21:43;19.20;99.90
19906;DHT22;10115;50.906;4.438;2023-08-07T13:24:09;20.50;99.90
19906;DHT22;10115;50.906;4.438;2023-08-07T13:26:35;20.90;99.90
19906;DHT22;10115;50.906;4.438;2023-08-07T13:29:01;21.20;99.90
19906;DHT22;10115;50.906;4.438;2023-08-07T13:31:27;21.20;99.90
19906;DHT22;10115;50.906;4.438;2023-08-07T13:33:53;21.30;99.90
19906;DHT22;10115;50.906;4.438;2023-08-07T13:36:18;20.30;99.90
19906;DHT22;10115;50.906;4.438;2023-08-07T13:38:44;19.70;99.90
19906;DHT22;10115;50.906;4.438;2023-08-07T13:41:10;20.30;99.90
19906;DHT22;10115;50.906;4.438;2023-08-07T13:43:37;20.90;99.90
19906;DHT22;10115;50.906;4.438;2023-08-07T13:46:02;21.20;99.90
19906;DHT22;10115;50.906;4.438;2023-08-07T13:48:28;21.50;99.90
19906;DHT22;10115;50.906;4.438;2023-08-07T13:50:54;21.90;99.90
19906;DHT22;10115;50.906;4.438;2023-08-07T13:53:20;21.80;99.90
19906;DHT22;10115;50.906;4.438;2023-08-07T13:55:46;21.70;99.90
19906;DHT22;10115;50.906;4.438;2023-08-07T13:58:13;21.20;99.90
19906;DHT22;10115;50.906;4.438;2023-08-07T14:00:41;20.40;99.90
19906;DHT22;10115;50.906;4.438;2023-08-07T14:03:08;20.10;99.90
19906;DHT22;10115;50.906;4.438;2023-08-07T14:05:35;20.00;99.90
19906;DHT22;10115;50.906;4.438;2023-08-07T14:08:00;20.20;99.90
19906;DHT22;10115;50.906;4.438;2023-08-07T14:10:27;19.90;99.90
19906;DHT22;10115;50.906;4.438;2023-08-07T14:12:53;20.10;99.90
19906;DHT22;10115;50.906;4.438;2023-08-07T14:15:19;21.20;99.90
19906;DHT22;10115;50.906;4.438;2023-08-07T14:17:44;22.10;99.90
19906;DHT22;10115;50.906;4.438;2023-08-07T14:20:10;22.90;99.90
19906;DHT22;10115;50.906;4.438;2023-08-07T14:22:36;22.10;99.90
19906;DHT22;10115;50.906;4.438;2023-08-07T14:25:03;21.60;99.90
19906;DHT22;10115;50.906;4.438;2023-08-07T14:27:30;21.40;99.90
19906;DHT22;10115;50.906;4.438;2023-08-07T14:29:56;21.20;99.90
19906;DHT22;10115;50.906;4.438;2023-08-07T14:32:22;21.60;99.90
19906;DHT22;10115;50.906;4.438;2023-08-07T14:34:48;22.20;99.90
19906;DHT22;10115;50.906;4.438;2023-08-07T14:37:14;22.20;99.90
19906;DHT22;10115;50.906;4.438;2023-08-07T14:39:40;22.40;99.90
19906;DHT22;10115;50.906;4.438;2023-08-07T14:42:06;22.40;99.90
19906;DHT22;10115;50.906;4.438;2023-08-07T14:44:32;22.20;99.90
19906;DHT22;10115;50.906;4.438;2023-08-07T14:46:58;22.00;99.90
19906;DHT22;10115;50.906;4.438;2023-08-07T14:49:24;21.70;99.90
19906;DHT22;10115;50.906;4.438;2023-08-07T14:51:50;21.80;99.90
19906;DHT22;10115;50.906;4.438;2023-08-07T14:54:15;21.80;99.90
19906;DHT22;10115;50.906;4.438;2023-08-07T14:56:41;21.60;99.90
19906;DHT22;10115;50.906;4.438;2023-08-07T14:59:07;21.10;99.90
19906;DHT22;10115;50.906;4.438;2023-08-07T15:01:32;20.50;99.90
19906;DHT22;10115;50.906;4.438;2023-08-07T15:03:58;20.00;99.90
19906;DHT22;10115;50.906;4.438;2023-08-07T15:06:24;20.10;99.90
19906;DHT22;10115;50.906;4.438;2023-08-07T15:08:50;20.80;99.90
19906;DHT22;10115;50.906;4.438;2023-08-07T15:11:16;21.70;99.90
19906;DHT22;10115;50.906;4.438;2023-08-07T15:13:42;22.80;99.90
19906;DHT22;10115;50.906;4.438;2023-08-07T15:16:08;22.70;99.90
19906;DHT22;10115;50.906;4.438;2023-08-07T15:18:33;21.00;99.90
19906;DHT22;10115;50.906;4.438;2023-08-07T15:20:59;21.60;99.90
19906;DHT22;10115;50.906;4.438;2023-08-07T15:23:28;22.50;99.90
19906;DHT22;10115;50.906;4.438;2023-08-07T15:25:53;22.80;99.90
19906;DHT22;10115;50.906;4.438;2023-08-07T15:28:19;21.50;99.90
19906;DHT22;10115;50.906;4.438;2023-08-07T15:30:49;20.90;99.90
19906;DHT22;10115;50.906;4.438;2023-08-07T15:33:15;21.00;99.90
19906;DHT22;10115;50.906;4.438;2023-08-07T15:35:42;21.90;99.90
19906;DHT22;10115;50.906;4.438;2023-08-07T15:38:08;21.80;99.90
19906;DHT22;10115;50.906;4.438;2023-08-07T15:40:38;21.20;99.90